Bautista Pino — EASK — position and weather

sailwx.info

Track history (hours):
 
Tides and Currents Weather Stations Pressure Air Temp Water Temp Dewpoint Dewpoint Depression Visibility Wind Speed Wind Dir Waves Ship Positions

Bautista Pino

Last reported at 2016-Nov-30 20:33 UTC. Time now 2016-Dec-11 06:10 UTC.
Position N 43°35' W 005°38'.
Warning: this ship's position is 10 days out of date.

Length 29 m; draft 3.5 m.

Type: Fishing. MMSI: 224181290.

Date/timePositionNaut miles runAvg speedWind from/ knotsBaromVisibWave heightAir tempDewpointWater temp
2016-Nov-30 20:33N 43°35' W 005°38'9 8.9
2016-Nov-30 19:33N 43°43' W 005°31'15 2.0
2016-Nov-30 12:17N 43°49' W 005°13'12 1.1
2016-Nov-30 01:19N 43°38' W 005°21'8 8.5
2016-Nov-30 00:22N 43°36' W 005°31'7 8.8
2016-Nov-29 23:33N 43°34' W 005°41'1 0.8
2016-Nov-29 22:28N 43°33' W 005°42'0 0.0
2016-Nov-29 21:32N 43°33' W 005°42'9 0.5
2016-Nov-29 01:11N 43°42' W 005°45'  
Track history (hours):
 
Tides and Currents Weather Stations Pressure Air Temp Water Temp Dewpoint Dewpoint Depression Visibility Wind Speed Wind Dir Waves Ship Positions

Bautista Pino

Last reported at 2016-Nov-30 20:33 UTC. Time now 2016-Dec-11 06:10 UTC.
Position N 43°35' W 005°38'.
Warning: this ship's position is 10 days out of date.

Length 29 m; draft 3.5 m.

Type: Fishing. MMSI: 224181290.

Date/timePositionNaut miles runAvg speedWind from/ knotsBaromVisibWave heightAir tempDewpointWater temp
2016-Nov-30 20:33N 43°35' W 005°38'9 8.9
2016-Nov-30 19:33N 43°43' W 005°31'15 2.0
2016-Nov-30 12:17N 43°49' W 005°13'12 1.1
2016-Nov-30 01:19N 43°38' W 005°21'8 8.5
2016-Nov-30 00:22N 43°36' W 005°31'7 8.8
2016-Nov-29 23:33N 43°34' W 005°41'1 0.8
2016-Nov-29 22:28N 43°33' W 005°42'0 0.0
2016-Nov-29 21:32N 43°33' W 005°42'9 0.5
2016-Nov-29 01:11N 43°42' W 005°45'  

Dump ship's entire track history